sensor_id;sensor_type;location;lat;lon;timestamp;pressure;altitude;pressure_sealevel;temperature;humidity
54994;BME280;40891;47.242;8.648;2023-05-19T00:01:06;96579.16;;;12.61;79.61
54994;BME280;40891;47.242;8.648;2023-05-19T00:03:33;96570.97;;;12.58;79.33
54994;BME280;40891;47.242;8.648;2023-05-19T00:06:01;96564.91;;;12.50;81.67
54994;BME280;40891;47.242;8.648;2023-05-19T00:08:29;96570.00;;;12.52;82.04
54994;BME280;40891;47.242;8.648;2023-05-19T00:10:56;96568.00;;;12.52;80.06
54994;BME280;40891;47.242;8.648;2023-05-19T00:13:22;96568.44;;;12.42;80.37
54994;BME280;40891;47.242;8.648;2023-05-19T00:15:48;96568.56;;;12.38;80.25
54994;BME280;40891;47.242;8.648;2023-05-19T00:18:13;96556.63;;;12.38;79.50
54994;BME280;40891;47.242;8.648;2023-05-19T00:20:41;96561.47;;;12.37;81.07
54994;BME280;40891;47.242;8.648;2023-05-19T00:23:06;96562.91;;;12.60;78.96
54994;BME280;40891;47.242;8.648;2023-05-19T00:25:31;96555.88;;;12.37;80.62
54994;BME280;40891;47.242;8.648;2023-05-19T00:27:57;96557.88;;;12.27;82.00
54994;BME280;40891;47.242;8.648;2023-05-19T00:30:23;96557.56;;;12.25;82.75
54994;BME280;40891;47.242;8.648;2023-05-19T00:32:49;96557.22;;;12.23;81.63
54994;BME280;40891;47.242;8.648;2023-05-19T00:35:15;96561.97;;;12.14;82.69
54994;BME280;40891;47.242;8.648;2023-05-19T00:37:40;96559.94;;;12.05;84.19
54994;BME280;40891;47.242;8.648;2023-05-19T00:40:06;96552.81;;;12.04;84.23
54994;BME280;40891;47.242;8.648;2023-05-19T00:42:32;96555.88;;;11.97;83.72
54994;BME280;40891;47.242;8.648;2023-05-19T00:44:57;96554.03;;;11.94;85.82
54994;BME280;40891;47.242;8.648;2023-05-19T00:47:23;96550.56;;;11.90;86.81
54994;BME280;40891;47.242;8.648;2023-05-19T00:49:48;96540.81;;;11.86;88.16
54994;BME280;40891;47.242;8.648;2023-05-19T00:52:14;96547.75;;;11.81;87.47
54994;BME280;40891;47.242;8.648;2023-05-19T00:54:39;96541.88;;;11.79;86.41
54994;BME280;40891;47.242;8.648;2023-05-19T00:57:05;96551.50;;;11.87;85.85
54994;BME280;40891;47.242;8.648;2023-05-19T00:59:30;96543.59;;;11.86;85.39
54994;BME280;40891;47.242;8.648;2023-05-19T01:01:56;96543.16;;;11.87;86.76
54994;BME280;40891;47.242;8.648;2023-05-19T01:04:21;96544.53;;;11.83;84.64
54994;BME280;40891;47.242;8.648;2023-05-19T01:06:50;96538.16;;;11.82;86.34
54994;BME280;40891;47.242;8.648;2023-05-19T01:09:21;96534.59;;;11.82;87.86
54994;BME280;40891;47.242;8.648;2023-05-19T01:11:48;96540.63;;;11.80;87.30
54994;BME280;40891;47.242;8.648;2023-05-19T01:14:14;96535.97;;;11.77;87.49
54994;BME280;40891;47.242;8.648;2023-05-19T01:16:42;96529.50;;;11.80;86.62
54994;BME280;40891;47.242;8.648;2023-05-19T01:22:11;96533.66;;;11.76;86.92
54994;BME280;40891;47.242;8.648;2023-05-19T01:27:46;96533.16;;;11.68;87.11
54994;BME280;40891;47.242;8.648;2023-05-19T01:30:36;96536.34;;;11.67;88.64
54994;BME280;40891;47.242;8.648;2023-05-19T01:33:04;96541.91;;;11.67;89.72
54994;BME280;40891;47.242;8.648;2023-05-19T01:35:34;96539.13;;;11.67;89.48
54994;BME280;40891;47.242;8.648;2023-05-19T01:38:00;96547.38;;;11.70;88.66
54994;BME280;40891;47.242;8.648;2023-05-19T01:40:27;96541.91;;;11.67;88.24
54994;BME280;40891;47.242;8.648;2023-05-19T01:42:54;96537.72;;;11.62;89.31
54994;BME280;40891;47.242;8.648;2023-05-19T01:45:21;96547.91;;;11.56;90.13
54994;BME280;40891;47.242;8.648;2023-05-19T01:47:51;96548.69;;;11.56;89.84
54994;BME280;40891;47.242;8.648;2023-05-19T01:50:17;96551.00;;;11.58;91.33
54994;BME280;40891;47.242;8.648;2023-05-19T01:52:42;96550.03;;;11.52;90.62
54994;BME280;40891;47.242;8.648;2023-05-19T01:55:08;96549.59;;;11.53;90.98
54994;BME280;40891;47.242;8.648;2023-05-19T02:09:01;96528.47;;;11.43;93.31
54994;BME280;40891;47.242;8.648;2023-05-19T02:11:37;96528.16;;;11.41;93.18
54994;BME280;40891;47.242;8.648;2023-05-19T02:14:31;96528.63;;;11.40;93.18
54994;BME280;40891;47.242;8.648;2023-05-19T02:16:56;96527.31;;;11.32;94.63
54994;BME280;40891;47.242;8.648;2023-05-19T02:19:27;96534.00;;;11.34;94.85
54994;BME280;40891;47.242;8.648;2023-05-19T02:21:53;96529.22;;;11.35;95.41
54994;BME280;40891;47.242;8.648;2023-05-19T02:24:18;96529.00;;;11.29;94.66
54994;BME280;40891;47.242;8.648;2023-05-19T02:26:45;96529.78;;;11.30;95.51
54994;BME280;40891;47.242;8.648;2023-05-19T02:29:10;96535.34;;;11.30;95.30
54994;BME280;40891;47.242;8.648;2023-05-19T02:31:36;96528.09;;;11.32;96.13
54994;BME280;40891;47.242;8.648;2023-05-19T02:34:01;96519.28;;;11.34;95.48
54994;BME280;40891;47.242;8.648;2023-05-19T02:36:26;96525.63;;;11.34;94.17
54994;BME280;40891;47.242;8.648;2023-05-19T02:38:52;96526.09;;;11.33;95.35
54994;BME280;40891;47.242;8.648;2023-05-19T02:41:17;96526.41;;;11.35;94.03
54994;BME280;40891;47.242;8.648;2023-05-19T02:43:43;96517.75;;;11.33;94.24
54994;BME280;40891;47.242;8.648;2023-05-19T02:46:08;96516.50;;;11.34;95.32
54994;BME280;40891;47.242;8.648;2023-05-19T02:48:34;96524.41;;;11.35;94.93
54994;BME280;40891;47.242;8.648;2023-05-19T02:50:59;96510.50;;;11.35;95.69
54994;BME280;40891;47.242;8.648;2023-05-19T02:53:24;96507.38;;;11.33;96.06
54994;BME280;40891;47.242;8.648;2023-05-19T02:55:50;96507.19;;;11.28;96.32
54994;BME280;40891;47.242;8.648;2023-05-19T02:58:15;96510.88;;;11.25;95.06
54994;BME280;40891;47.242;8.648;2023-05-19T03:00:40;96512.31;;;11.29;95.55
54994;BME280;40891;47.242;8.648;2023-05-19T03:03:08;96511.19;;;11.27;94.89
54994;BME280;40891;47.242;8.648;2023-05-19T03:05:34;96509.09;;;11.31;94.02
54994;BME280;40891;47.242;8.648;2023-05-19T03:08:00;96504.75;;;11.30;94.79
54994;BME280;40891;47.242;8.648;2023-05-19T03:10:25;96506.09;;;11.25;94.75
54994;BME280;40891;47.242;8.648;2023-05-19T03:12:50;96496.50;;;11.26;93.19
54994;BME280;40891;47.242;8.648;2023-05-19T03:15:16;96506.88;;;11.26;94.18
54994;BME280;40891;47.242;8.648;2023-05-19T03:17:42;96506.88;;;11.26;94.34
54994;BME280;40891;47.242;8.648;2023-05-19T03:20:08;96504.41;;;11.28;93.42
54994;BME280;40891;47.242;8.648;2023-05-19T03:22:35;96499.03;;;11.33;96.03
54994;BME280;40891;47.242;8.648;2023-05-19T03:25:01;96508.94;;;11.34;94.07
54994;BME280;40891;47.242;8.648;2023-05-19T03:27:28;96506.75;;;11.29;94.84
54994;BME280;40891;47.242;8.648;2023-05-19T03:29:53;96508.56;;;11.23;94.92
54994;BME280;40891;47.242;8.648;2023-05-19T03:32:18;96507.78;;;11.23;94.28
54994;BME280;40891;47.242;8.648;2023-05-19T03:34:44;96507.78;;;11.23;94.68
54994;BME280;40891;47.242;8.648;2023-05-19T03:37:09;96518.91;;;11.23;95.54
54994;BME280;40891;47.242;8.648;2023-05-19T03:39:35;96505.31;;;11.25;95.96
54994;BME280;40891;47.242;8.648;2023-05-19T03:42:00;96510.88;;;11.25;95.10
54994;BME280;40891;47.242;8.648;2023-05-19T03:44:26;96513.03;;;11.21;95.87
54994;BME280;40891;47.242;8.648;2023-05-19T03:46:51;96520.06;;;11.13;94.97
54994;BME280;40891;47.242;8.648;2023-05-19T03:49:17;96522.53;;;11.11;95.56
54994;BME280;40891;47.242;8.648;2023-05-19T03:51:42;96521.31;;;11.12;95.35
54994;BME280;40891;47.242;8.648;2023-05-19T03:54:08;96519.28;;;11.12;95.91
54994;BME280;40891;47.242;8.648;2023-05-19T03:56:37;96523.97;;;11.15;95.18
54994;BME280;40891;47.242;8.648;2023-05-19T03:59:03;96524.84;;;11.12;96.02
54994;BME280;40891;47.242;8.648;2023-05-19T04:01:31;96530.41;;;11.12;97.08
54994;BME280;40891;47.242;8.648;2023-05-19T04:03:56;96526.88;;;11.12;96.47
54994;BME280;40891;47.242;8.648;2023-05-19T04:06:22;96527.16;;;11.05;97.36
54994;BME280;40891;47.242;8.648;2023-05-19T04:08:47;96518.78;;;11.05;95.28
54994;BME280;40891;47.242;8.648;2023-05-19T04:11:13;96520.66;;;11.08;95.30
54994;BME280;40891;47.242;8.648;2023-05-19T04:13:38;96523.31;;;11.11;95.65
54994;BME280;40891;47.242;8.648;2023-05-19T04:16:03;96526.88;;;11.12;95.93
54994;BME280;40891;47.242;8.648;2023-05-19T04:18:29;96527.31;;;11.10;96.64
54994;BME280;40891;47.242;8.648;2023-05-19T04:20:54;96532.13;;;11.10;96.34
54994;BME280;40891;47.242;8.648;2023-05-19T04:23:20;96541.91;;;11.14;96.86
54994;BME280;40891;47.242;8.648;2023-05-19T04:25:45;96536.66;;;11.16;96.24
54994;BME280;40891;47.242;8.648;2023-05-19T04:28:13;96537.56;;;11.13;95.04
54994;BME280;40891;47.242;8.648;2023-05-19T04:30:39;96546.44;;;11.21;95.04
54994;BME280;40891;47.242;8.648;2023-05-19T04:33:04;96544.28;;;11.25;94.37
54994;BME280;40891;47.242;8.648;2023-05-19T04:35:31;96543.25;;;11.31;94.73
54994;BME280;40891;47.242;8.648;2023-05-19T04:37:57;96552.53;;;11.28;94.27
54994;BME280;40891;47.242;8.648;2023-05-19T04:40:22;96543.38;;;11.28;94.79
54994;BME280;40891;47.242;8.648;2023-05-19T04:42:49;96547.38;;;11.27;95.47
54994;BME280;40891;47.242;8.648;2023-05-19T04:45:16;96555.31;;;11.28;94.23
54994;BME280;40891;47.242;8.648;2023-05-19T04:47:42;96547.13;;;11.34;94.40
54994;BME280;40891;47.242;8.648;2023-05-19T04:50:08;96547.78;;;11.38;96.71
54994;BME280;40891;47.242;8.648;2023-05-19T04:52:35;96546.22;;;11.37;95.16
54994;BME280;40891;47.242;8.648;2023-05-19T04:55:01;96549.22;;;11.42;95.10
54994;BME280;40891;47.242;8.648;2023-05-19T04:57:27;96552.94;;;11.48;95.76
54994;BME280;40891;47.242;8.648;2023-05-19T04:59:52;96546.66;;;11.57;94.96
54994;BME280;40891;47.242;8.648;2023-05-19T05:02:23;96549.31;;;11.60;93.87
54994;BME280;40891;47.242;8.648;2023-05-19T05:04:49;96549.94;;;11.64;92.64
54994;BME280;40891;47.242;8.648;2023-05-19T05:07:14;96544.38;;;11.64;92.23
54994;BME280;40891;47.242;8.648;2023-05-19T05:09:40;96545.47;;;11.67;92.32
54994;BME280;40891;47.242;8.648;2023-05-19T05:12:06;96534.81;;;11.66;93.27
54994;BME280;40891;47.242;8.648;2023-05-19T05:14:32;96547.63;;;11.63;93.98
54994;BME280;40891;47.242;8.648;2023-05-19T05:16:58;96543.38;;;11.71;93.18
54994;BME280;40891;47.242;8.648;2023-05-19T05:19:23;96545.81;;;11.69;92.28
54994;BME280;40891;47.242;8.648;2023-05-19T05:21:49;96551.28;;;11.73;91.37
54994;BME280;40891;47.242;8.648;2023-05-19T05:24:15;96546.03;;;11.75;91.03
54994;BME280;40891;47.242;8.648;2023-05-19T05:26:40;96549.91;;;11.77;92.19
54994;BME280;40891;47.242;8.648;2023-05-19T05:29:08;96549.44;;;11.79;91.28
54994;BME280;40891;47.242;8.648;2023-05-19T05:31:34;96540.63;;;11.80;91.80
54994;BME280;40891;47.242;8.648;2023-05-19T05:33:59;96546.44;;;11.95;91.33
54994;BME280;40891;47.242;8.648;2023-05-19T05:36:25;96550.56;;;11.90;89.72
54994;BME280;40891;47.242;8.648;2023-05-19T05:38:50;96544.59;;;12.01;90.30
54994;BME280;40891;47.242;8.648;2023-05-19T05:41:15;96547.38;;;12.01;90.56
54994;BME280;40891;47.242;8.648;2023-05-19T05:43:41;96545.06;;;11.99;89.98
54994;BME280;40891;47.242;8.648;2023-05-19T05:46:06;96540.16;;;12.12;89.87
54994;BME280;40891;47.242;8.648;2023-05-19T05:48:32;96542.97;;;12.21;90.83
54994;BME280;40891;47.242;8.648;2023-05-19T05:50:58;96534.00;;;12.26;89.37
54994;BME280;40891;47.242;8.648;2023-05-19T05:53:24;96539.59;;;12.36;88.19
54994;BME280;40891;47.242;8.648;2023-05-19T05:55:51;96540.84;;;12.35;89.75
54994;BME280;40891;47.242;8.648;2023-05-19T05:58:17;96545.53;;;12.47;88.61
54994;BME280;40891;47.242;8.648;2023-05-19T06:00:45;96539.03;;;12.59;88.99
54994;BME280;40891;47.242;8.648;2023-05-19T06:03:12;96537.19;;;12.74;86.73
54994;BME280;40891;47.242;8.648;2023-05-19T06:05:38;96538.59;;;12.69;86.36
54994;BME280;40891;47.242;8.648;2023-05-19T06:08:04;96540.91;;;12.71;86.53
54994;BME280;40891;47.242;8.648;2023-05-19T06:10:30;96541.69;;;12.71;86.28
54994;BME280;40891;47.242;8.648;2023-05-19T06:12:55;96539.06;;;12.77;85.48
54994;BME280;40891;47.242;8.648;2023-05-19T06:15:21;96541.25;;;12.82;86.70
54994;BME280;40891;47.242;8.648;2023-05-19T06:17:46;96535.69;;;12.82;84.56
54994;BME280;40891;47.242;8.648;2023-05-19T06:20:12;96534.28;;;12.77;85.90
54994;BME280;40891;47.242;8.648;2023-05-19T06:22:38;96527.91;;;12.86;85.20
54994;BME280;40891;47.242;8.648;2023-05-19T06:25:04;96543.44;;;12.87;86.23
54994;BME280;40891;47.242;8.648;2023-05-19T06:27:30;96541.56;;;12.93;86.32
54994;BME280;40891;47.242;8.648;2023-05-19T06:29:55;96544.66;;;12.95;85.93
54994;BME280;40891;47.242;8.648;2023-05-19T06:32:21;96537.84;;;13.05;86.15
54994;BME280;40891;47.242;8.648;2023-05-19T06:34:46;96534.31;;;13.14;84.29
54994;BME280;40891;47.242;8.648;2023-05-19T06:37:21;96539.28;;;13.10;82.73
54994;BME280;40891;47.242;8.648;2023-05-19T06:39:51;96535.56;;;13.22;83.40
54994;BME280;40891;47.242;8.648;2023-05-19T06:42:20;96541.13;;;13.22;83.58
54994;BME280;40891;47.242;8.648;2023-05-19T06:44:50;96539.41;;;13.33;83.15
54994;BME280;40891;47.242;8.648;2023-05-19T06:47:16;96541.88;;;13.40;82.59
54994;BME280;40891;47.242;8.648;2023-05-19T06:49:43;96544.34;;;13.56;81.54
54994;BME280;40891;47.242;8.648;2023-05-19T06:52:08;96551.00;;;13.68;81.05
54994;BME280;40891;47.242;8.648;2023-05-19T06:54:33;96545.03;;;13.93;79.95
54994;BME280;40891;47.242;8.648;2023-05-19T06:56:59;96546.25;;;14.01;80.13
54994;BME280;40891;47.242;8.648;2023-05-19T06:59:24;96543.09;;;14.08;78.30
54994;BME280;40891;47.242;8.648;2023-05-19T07:01:50;96539.34;;;14.20;78.83
54994;BME280;40891;47.242;8.648;2023-05-19T07:04:15;96548.94;;;14.28;77.22
54994;BME280;40891;47.242;8.648;2023-05-19T07:06:40;96544.53;;;14.04;78.36
54994;BME280;40891;47.242;8.648;2023-05-19T07:09:06;96552.00;;;13.98;79.19
54994;BME280;40891;47.242;8.648;2023-05-19T07:11:31;96540.84;;;13.98;79.38
54994;BME280;40891;47.242;8.648;2023-05-19T07:13:56;96544.53;;;14.04;79.40
54994;BME280;40891;47.242;8.648;2023-05-19T07:16:22;96546.13;;;13.87;79.25
54994;BME280;40891;47.242;8.648;2023-05-19T07:18:47;96549.06;;;13.92;78.63
54994;BME280;40891;47.242;8.648;2023-05-19T07:21:12;96549.84;;;13.93;78.91
54994;BME280;40891;47.242;8.648;2023-05-19T07:23:38;96549.53;;;14.00;80.01
54994;BME280;40891;47.242;8.648;2023-05-19T07:26:03;96542.09;;;13.88;80.10
54994;BME280;40891;47.242;8.648;2023-05-19T07:28:28;96548.91;;;13.96;79.75
54994;BME280;40891;47.242;8.648;2023-05-19T07:30:54;96543.03;;;13.85;76.77
54994;BME280;40891;47.242;8.648;2023-05-19T07:33:19;96548.03;;;13.81;77.89
54994;BME280;40891;47.242;8.648;2023-05-19T07:35:45;96542.47;;;13.62;77.71
54994;BME280;40891;47.242;8.648;2023-05-19T07:38:10;96539.53;;;13.57;77.86
54994;BME280;40891;47.242;8.648;2023-05-19T07:40:36;96533.16;;;13.56;79.65
54994;BME280;40891;47.242;8.648;2023-05-19T07:43:01;96538.16;;;13.52;79.68
54994;BME280;40891;47.242;8.648;2023-05-19T07:45:27;96538.16;;;13.52;82.74
54994;BME280;40891;47.242;8.648;2023-05-19T07:47:52;96548.06;;;13.62;79.95
54994;BME280;40891;47.242;8.648;2023-05-19T07:50:18;96543.41;;;13.59;78.83
54994;BME280;40891;47.242;8.648;2023-05-19T07:52:43;96540.41;;;13.81;78.99
54994;BME280;40891;47.242;8.648;2023-05-19T07:55:08;96542.13;;;13.79;76.39
54994;BME280;40891;47.242;8.648;2023-05-19T07:57:36;96543.16;;;13.99;77.91
54994;BME280;40891;47.242;8.648;2023-05-19T08:00:02;96552.16;;;13.94;76.79
54994;BME280;40891;47.242;8.648;2023-05-19T08:02:32;96547.63;;;14.06;77.37
54994;BME280;40891;47.242;8.648;2023-05-19T08:04:57;96546.72;;;14.00;76.27
54994;BME280;40891;47.242;8.648;2023-05-19T08:07:23;96548.25;;;14.10;75.75
54994;BME280;40891;47.242;8.648;2023-05-19T08:09:48;96541.97;;;14.24;74.79
54994;BME280;40891;47.242;8.648;2023-05-19T08:12:13;96541.44;;;14.02;73.44
54994;BME280;40891;47.242;8.648;2023-05-19T08:14:39;96536.56;;;14.11;75.23
54994;BME280;40891;47.242;8.648;2023-05-19T08:17:04;96539.88;;;14.01;74.69
54994;BME280;40891;47.242;8.648;2023-05-19T08:19:30;96533.59;;;14.24;76.85
54994;BME280;40891;47.242;8.648;2023-05-19T08:21:55;96532.16;;;14.28;76.31
54994;BME280;40891;47.242;8.648;2023-05-19T08:24:21;96526.34;;;14.41;74.38
54994;BME280;40891;47.242;8.648;2023-05-19T08:26:46;96528.81;;;14.48;71.29
54994;BME280;40891;47.242;8.648;2023-05-19T08:29:12;96527.31;;;14.38;70.90
54994;BME280;40891;47.242;8.648;2023-05-19T08:31:37;96528.50;;;14.46;72.46
54994;BME280;40891;47.242;8.648;2023-05-19T08:34:02;96523.63;;;14.56;70.74
54994;BME280;40891;47.242;8.648;2023-05-19T08:36:28;96521.69;;;14.71;70.81
54994;BME280;40891;47.242;8.648;2023-05-19T08:38:54;96517.06;;;15.06;70.64
54994;BME280;40891;47.242;8.648;2023-05-19T08:41:20;96518.63;;;15.22;70.17
54994;BME280;40891;47.242;8.648;2023-05-19T08:43:46;96518.75;;;15.27;68.51
54994;BME280;40891;47.242;8.648;2023-05-19T08:46:12;96512.09;;;15.39;68.57
54994;BME280;40891;47.242;8.648;2023-05-19T08:48:41;96515.81;;;15.60;68.97
54994;BME280;40891;47.242;8.648;2023-05-19T08:51:43;96515.63;;;15.78;66.59
54994;BME280;40891;47.242;8.648;2023-05-19T08:54:14;96514.91;;;16.12;67.24
54994;BME280;40891;47.242;8.648;2023-05-19T08:56:45;96505.16;;;16.08;66.05
54994;BME280;40891;47.242;8.648;2023-05-19T08:59:12;96508.53;;;16.12;66.05
54994;BME280;40891;47.242;8.648;2023-05-19T09:01:40;96510.09;;;16.13;65.30
54994;BME280;40891;47.242;8.648;2023-05-19T09:04:06;96508.84;;;15.99;67.82
54994;BME280;40891;47.242;8.648;2023-05-19T09:06:32;96507.41;;;15.89;68.93
54994;BME280;40891;47.242;8.648;2023-05-19T09:08:59;96509.59;;;16.00;67.92
54994;BME280;40891;47.242;8.648;2023-05-19T09:11:24;96510.31;;;15.80;69.40
54994;BME280;40891;47.242;8.648;2023-05-19T09:13:50;96508.09;;;15.84;68.44
54994;BME280;40891;47.242;8.648;2023-05-19T09:16:16;96505.56;;;16.01;66.44
54994;BME280;40891;47.242;8.648;2023-05-19T09:18:52;96503.16;;;16.28;67.54
54994;BME280;40891;47.242;8.648;2023-05-19T09:21:19;96495.28;;;16.47;64.67
54994;BME280;40891;47.242;8.648;2023-05-19T09:23:46;96494.69;;;16.78;63.45
54994;BME280;40891;47.242;8.648;2023-05-19T09:26:13;96486.22;;;16.72;63.97
54994;BME280;40891;47.242;8.648;2023-05-19T09:28:39;96489.09;;;16.78;63.72
54994;BME280;40891;47.242;8.648;2023-05-19T09:31:08;96491.13;;;16.77;63.97
54994;BME280;40891;47.242;8.648;2023-05-19T09:33:36;96491.91;;;16.98;63.94
54994;BME280;40891;47.242;8.648;2023-05-19T09:36:02;96485.44;;;17.12;63.97
54994;BME280;40891;47.242;8.648;2023-05-19T09:38:30;96498.34;;;17.24;61.35
54994;BME280;40891;47.242;8.648;2023-05-19T09:40:56;96497.63;;;17.29;59.39
54994;BME280;40891;47.242;8.648;2023-05-19T09:43:22;96495.28;;;17.28;61.86
54994;BME280;40891;47.242;8.648;2023-05-19T09:45:54;96483.13;;;17.88;60.68
54994;BME280;40891;47.242;8.648;2023-05-19T09:48:19;96490.66;;;17.71;58.33
54994;BME280;40891;47.242;8.648;2023-05-19T09:50:45;96495.28;;;17.74;57.39
54994;BME280;40891;47.242;8.648;2023-05-19T09:53:16;96485.00;;;17.96;59.00
54994;BME280;40891;47.242;8.648;2023-05-19T09:55:42;96486.22;;;17.90;58.20
54994;BME280;40891;47.242;8.648;2023-05-19T09:58:09;96485.16;;;17.82;57.73
54994;BME280;40891;47.242;8.648;2023-05-19T10:00:34;96499.88;;;17.51;58.27
54994;BME280;40891;47.242;8.648;2023-05-19T10:03:02;96494.94;;;17.40;59.87
54994;BME280;40891;47.242;8.648;2023-05-19T10:05:29;96503.56;;;17.37;62.69
54994;BME280;40891;47.242;8.648;2023-05-19T10:07:55;96499.16;;;17.30;61.26
54994;BME280;40891;47.242;8.648;2023-05-19T10:10:21;96499.63;;;16.83;62.13
54994;BME280;40891;47.242;8.648;2023-05-19T10:12:48;96498.91;;;16.88;62.50
54994;BME280;40891;47.242;8.648;2023-05-19T10:15:16;96493.59;;;17.10;64.27
54994;BME280;40891;47.242;8.648;2023-05-19T10:17:42;96485.94;;;16.90;63.92
54994;BME280;40891;47.242;8.648;2023-05-19T10:20:13;96492.69;;;16.98;63.66
54994;BME280;40891;47.242;8.648;2023-05-19T10:22:40;96485.72;;;16.54;63.21
54994;BME280;40891;47.242;8.648;2023-05-19T10:25:07;96481.44;;;16.58;65.53
54994;BME280;40891;47.242;8.648;2023-05-19T10:27:35;96485.50;;;16.57;64.95
54994;BME280;40891;47.242;8.648;2023-05-19T10:30:32;96481.06;;;16.71;65.08
54994;BME280;40891;47.242;8.648;2023-05-19T10:33:00;96489.59;;;16.76;67.22
54994;BME280;40891;47.242;8.648;2023-05-19T10:38:27;96487.34;;;17.00;63.17
54994;BME280;40891;47.242;8.648;2023-05-19T10:41:09;96478.63;;;16.98;64.77
54994;BME280;40891;47.242;8.648;2023-05-19T10:46:01;96483.47;;;16.58;66.72
54994;BME280;40891;47.242;8.648;2023-05-19T10:48:32;96480.94;;;16.60;66.69
54994;BME280;40891;47.242;8.648;2023-05-19T10:50:58;96477.63;;;16.61;65.71
54994;BME280;40891;47.242;8.648;2023-05-19T10:53:30;96484.81;;;16.62;65.66
54994;BME280;40891;47.242;8.648;2023-05-19T10:55:55;96482.59;;;16.52;66.11
54994;BME280;40891;47.242;8.648;2023-05-19T11:01:18;96485.16;;;16.70;67.85
54994;BME280;40891;47.242;8.648;2023-05-19T11:03:54;96488.97;;;16.87;66.49
54994;BME280;40891;47.242;8.648;2023-05-19T11:06:33;96481.94;;;16.77;67.66
54994;BME280;40891;47.242;8.648;2023-05-19T11:09:14;96480.59;;;16.72;65.84
54994;BME280;40891;47.242;8.648;2023-05-19T11:11:48;96482.97;;;16.59;67.66
54994;BME280;40891;47.242;8.648;2023-05-19T11:14:15;96485.09;;;16.29;67.40
54994;BME280;40891;47.242;8.648;2023-05-19T11:16:41;96481.13;;;16.21;68.66
54994;BME280;40891;47.242;8.648;2023-05-19T11:19:17;96474.69;;;16.35;67.41
54994;BME280;40891;47.242;8.648;2023-05-19T11:21:47;96477.22;;;16.33;68.63
54994;BME280;40891;47.242;8.648;2023-05-19T11:24:47;96472.66;;;16.36;68.69
54994;BME280;40891;47.242;8.648;2023-05-19T11:27:25;96479.34;;;16.39;67.59
54994;BME280;40891;47.242;8.648;2023-05-19T11:32:35;96469.16;;;16.56;67.85
54994;BME280;40891;47.242;8.648;2023-05-19T11:35:06;96475.44;;;16.51;67.63
54994;BME280;40891;47.242;8.648;2023-05-19T11:37:32;96472.75;;;16.56;68.18
54994;BME280;40891;47.242;8.648;2023-05-19T11:40:00;96468.56;;;16.52;68.72
54994;BME280;40891;47.242;8.648;2023-05-19T11:42:26;96467.81;;;16.51;68.66
54994;BME280;40891;47.242;8.648;2023-05-19T11:44:54;96465.81;;;16.37;68.38
54994;BME280;40891;47.242;8.648;2023-05-19T11:47:20;96462.28;;;16.42;69.03
54994;BME280;40891;47.242;8.648;2023-05-19T11:49:47;96454.38;;;16.41;70.29
54994;BME280;40891;47.242;8.648;2023-05-19T11:52:13;96453.66;;;16.25;70.87
54994;BME280;40891;47.242;8.648;2023-05-19T11:54:38;96455.75;;;16.30;69.93
54994;BME280;40891;47.242;8.648;2023-05-19T11:57:07;96463.72;;;16.17;70.51
54994;BME280;40891;47.242;8.648;2023-05-19T11:59:34;96461.13;;;16.14;70.94
54994;BME280;40891;47.242;8.648;2023-05-19T12:02:01;96469.06;;;16.15;72.84
54994;BME280;40891;47.242;8.648;2023-05-19T12:04:29;96454.22;;;16.29;70.41
54994;BME280;40891;47.242;8.648;2023-05-19T12:06:54;96460.75;;;16.41;69.93
54994;BME280;40891;47.242;8.648;2023-05-19T12:09:21;96460.88;;;16.32;69.61
54994;BME280;40891;47.242;8.648;2023-05-19T12:11:48;96460.94;;;16.52;68.60
54994;BME280;40891;47.242;8.648;2023-05-19T12:14:14;96465.72;;;16.66;68.80
54994;BME280;40891;47.242;8.648;2023-05-19T12:16:39;96459.25;;;16.80;68.47
54994;BME280;40891;47.242;8.648;2023-05-19T12:19:06;96460.44;;;16.74;67.90
54994;BME280;40891;47.242;8.648;2023-05-19T12:21:31;96455.81;;;16.71;66.77
54994;BME280;40891;47.242;8.648;2023-05-19T12:23:58;96458.47;;;16.60;69.66
54994;BME280;40891;47.242;8.648;2023-05-19T12:26:23;96459.53;;;16.62;68.83
54994;BME280;40891;47.242;8.648;2023-05-19T12:28:49;96461.59;;;16.47;68.21
54994;BME280;40891;47.242;8.648;2023-05-19T12:31:16;96458.72;;;16.42;69.37
54994;BME280;40891;47.242;8.648;2023-05-19T12:33:41;96462.69;;;16.35;68.99
54994;BME280;40891;47.242;8.648;2023-05-19T12:36:07;96461.16;;;16.34;69.24
54994;BME280;40891;47.242;8.648;2023-05-19T12:38:33;96456.88;;;16.39;70.22
54994;BME280;40891;47.242;8.648;2023-05-19T12:41:01;96464.47;;;16.32;69.89
54994;BME280;40891;47.242;8.648;2023-05-19T12:43:27;96454.28;;;16.35;68.70
54994;BME280;40891;47.242;8.648;2023-05-19T12:45:52;96460.03;;;16.26;69.87
54994;BME280;40891;47.242;8.648;2023-05-19T12:48:20;96448.25;;;16.22;67.65
54994;BME280;40891;47.242;8.648;2023-05-19T12:50:47;96457.75;;;16.10;68.38
54994;BME280;40891;47.242;8.648;2023-05-19T12:53:13;96447.41;;;16.16;68.21
54994;BME280;40891;47.242;8.648;2023-05-19T12:55:40;96446.34;;;16.13;67.90
54994;BME280;40891;47.242;8.648;2023-05-19T12:58:07;96450.94;;;16.16;67.82
54994;BME280;40891;47.242;8.648;2023-05-19T13:00:32;96454.22;;;16.29;67.84
54994;BME280;40891;47.242;8.648;2023-05-19T13:05:26;96453.31;;;16.03;68.21
54994;BME280;40891;47.242;8.648;2023-05-19T13:08:17;96449.66;;;15.97;67.62
54994;BME280;40891;47.242;8.648;2023-05-19T13:10:43;96450.59;;;16.09;68.27
54994;BME280;40891;47.242;8.648;2023-05-19T13:13:09;96442.06;;;16.18;68.25
54994;BME280;40891;47.242;8.648;2023-05-19T13:15:37;96440.31;;;16.20;67.19
54994;BME280;40891;47.242;8.648;2023-05-19T13:18:05;96450.59;;;16.09;67.43
54994;BME280;40891;47.242;8.648;2023-05-19T13:20:31;96455.16;;;16.06;68.88
54994;BME280;40891;47.242;8.648;2023-05-19T13:22:59;96448.66;;;16.15;69.65
54994;BME280;40891;47.242;8.648;2023-05-19T13:25:25;96443.31;;;16.17;67.95
54994;BME280;40891;47.242;8.648;2023-05-19T13:27:51;96442.81;;;16.18;68.33
54994;BME280;40891;47.242;8.648;2023-05-19T13:30:17;96444.38;;;16.19;66.39